Rishiri, Japan

11:53 AM JST on July 31, 2015 (GMT +0900)
Wakkanai | | Change Station
CLOSE
Current Station
Airport
Location: Wakkanai Airport,
Elevation: 36 ft
Nearby Weather Stations

Elev 36 ft 45.40 °N, 141.80 °E | Updated 41 minutes ago

Light Rain Showers
Light Showers Rain Mist
73 °F
Feels Like 73 °F
N
10
Wind Variable Wind from SW

Today
High -- | Low -- °F
--% Chance of Precip.
Yesterday
High -- | Low -- °F
Precip. -- in
4:17 AM 7:04 PM
Full, 100% visible
Pressure 29.65 in
Visibility 3.1 miles
Clouds Few 200 ft
Mostly Cloudy 500 ft
Dew Point 70 °F
Humidity 88%
Rainfall 0.00 in
Snow Depth Not available.
UV 4 out of 12
Pollen Not available.
Air Quality Not available.
Flu Activity Not available.
SPECI RJCW 310212Z 23009KT 5000 -SHRA BR FEW002 BKN005 23/21 Q1004 RMK 1ST002 7ST005 A2967

More Conditions Fewer Conditions

Pressure 29.65 in
Visibility 3.1 miles
Clouds Few 200 ft
Mostly Cloudy 500 ft
Dew Point 70 °F
Humidity 88%
Rainfall 0.00 in
Snow Depth Not available.
UV 4 out of 12
Pollen Not available.
Air Quality Not available.
Flu Activity Not available.
SPECI RJCW 310212Z 23009KT 5000 -SHRA BR FEW002 BKN005 23/21 Q1004 RMK 1ST002 7ST005 A2967

More Conditions Fewer Conditions

10-Day Weather Forecast

×

Almanac

Astronomy

Jul. 31, 2015 Rise Set
Actual Time
Civil Twilight
Nautical Twilight
Astronomical Twilight
Moon
Length of Visible Light
Length of Day
Tomorrow will be .
, % of the Moon is Illuminated

Today's Extremes

Country Highs Country Lows

Community

WunderPhotos

Upload Photos

1,842,589 photos uploaded!

WunderBlogs® & News

Nearby

Air Quality

  Air Quality AQ Index Pollutant
Not available.

Snow Depth

Station Depth Elevation

Earthquake Activity

City Distance Mag. Time & Date
Minimum magnitude displayed is 2.5.

Coastal Water Temperatures

Place Temperature

Stations

Nearby Weather Stations

Station Location Temp. Windchill Dew Point Humidity Wind Precip. Elev Updated Type